LWSLEWISTON/NEZ PERCE COUNTY
METARs for airports near LWS, sorted by distance:
N 0 nm 1442' KLWS 222356Z 00000KT 10SM OVC005 01/M01 A3055
N 22 nm 2566' KPUW 222353Z 12003KT 10SM CLR 04/M01 A3050
SE 45 nm 3313' KGIC 230015Z 02003KT 10SM CLR 01/M01 A3048
W 55 nm 1194' KALW 230029Z 22003KT 1/4SM FG VV001 01/01 A3052
S 61 nm 4126' KJSY 230015Z 10SM CLR M02/M07 A3047
SW 77 nm 2717' KLGD 222356Z 00000KT 10SM CLR 04/M01 A3048
N 77 nm 2385' KGEG 222353Z 04004KT 3SM BR FEW003 OVC012 01/M01 A3051
N 78 nm 2462' KSKA 222358Z 00000KT 10SM FEW003 OVC010 00/M00 A3048
N 79 nm 1956' KSFF 222353Z 00000KT 9SM OVC019 02/01 A3053
N 84 nm 2320' KCOE 222356Z 00000KT 10SM FEW021 03/M01 A3051
SW 86 nm 1496' KPDT 222353Z 31007KT 10SM CLR 04/02 A3051
W 87 nm 410' KPSC 222353Z 36007KT 10SM CLR 03/M01 A3058
W 94 nm 394' KRLD 230015Z 36006KT 10SM CLR 02/00 A3059
N 97 nm 2210' KDEW 230005Z 30003KT 10SM OVC015 02/M01 A3052
SE 97 nm 5024' KMYL 222351Z 00000KT 10SM CLR M02/M07 A3038
S 98 nm 3373' KBKE 222353Z 00000KT 10SM CLR 02/M03 A3045
W 99 nm 644' KHRI 222353Z 36004KT 5SM BR OVC004 02/01 A3056
TAFs for airports near LWS, sorted by distance:
N 0 nm 1442' KLWS TAF COR KLWS 222352Z 2300/2324 00000KT 6SM BR BKN005
  FM230500 VRB03KT 2SM BR OVC003
  FM231400 19004KT 5SM BR BKN009
  FM232100 25005KT P6SM SCT250
N 22 nm 2566' KPUW TAF COR KPUW 222348Z 2300/2324 VRB05KT P6SM SCT250
W 55 nm 1194' KALW TAF KALW 222320Z 2300/2324 VRB04KT 3SM BR SCT002
  TEMPO 2300/2302 1/2SM FG VV001
  FM230200 VRB03KT 1/2SM FZFG VV002
  FM232100 22003KT 2SM BR BKN006
N 77 nm 2385' KGEG KGEG 222339Z 2300/2324 04005KT 2SM BR SCT003 OVC010
  FM230200 03003KT 1/2SM FZFG OVC004
  FM230800 03003KT 1/4SM FZFG VV002
  FM231900 08003KT 3/4SM BR OVC003
  FM232100 VRB03KT 3SM BR OVC006
N 78 nm 2462' KSKA TAF
  AMD KSKA 222130Z 2221/2401 06006KT 6000 BR OVC005 620055 QNH3051INS
  TEMPO 2222/2201 OVC008 620084
  BECMG 2303/2304 02005KT 0400 FZFG VV001 620013 QNH3043INS
  BECMG 2311/2312 07004KT 1200 BR BKN004 620043 QNH3030INS TX01/2221Z TNM03/2313Z
N 79 nm 1956' KSFF KSFF 222339Z 2300/2324 00000KT 6SM BR OVC015
  FM230500 00000KT 3SM BR OVC008
  FM230800 00000KT 1SM BR OVC005
  FM232200 00000KT 6SM BR OVC012
N 84 nm 2320' KCOE KCOE 222339Z 2300/2324 00000KT P6SM BKN018
  FM230300 00000KT 1SM BR BKN008 OVC015
  FM231000 02004KT 3SM BR OVC020
  FM231600 20003KT P6SM BKN025
SW 86 nm 1496' KPDT TAF KPDT 222320Z 2300/2324 VRB05KT P6SM SCT200
  FM230600 33004KT 6SM BR FEW006 SCT200
  TEMPO 2306/2308 1SM BR BKN006
  FM230800 VRB03KT 2SM BR SCT006 SCT200
  FM231000 VRB02KT 1/2SM FZFG VV002
  FM231900 31003KT 6SM BR SCT250
W 87 nm 410' KPSC TAF KPSC 222320Z 2300/2324 36004KT P6SM SCT010
  FM230300 VRB03KT 4SM BR SCT002
  FM230600 VRB03KT 1/2SM FZFG BKN002
  FM231900 VRB02KT 4SM BR BKN005
  FM232100 35005KT 6SM BR BKN008
SE 97 nm 5024' KMYL TAF KMYL 222320Z 2300/2324 VRB03KT P6SM SKC
  FM230600 VRB03KT 1SM BR OVC002
  FM232100 VRB04KT P6SM BKN015
S 98 nm 3373' KBKE TAF KBKE 222320Z 2300/2324 VRB03KT P6SM SKC

Shortcut to this page: http://wxbay.com.

Data may contain errors.